PolandFixed distance
Warneland Lansk
26 Oct2019
Distance
53km
Finishers
9471 men23 women
Winning time
3:53:40h
Median pace
9.02km/h
Pace distribution
94 finishers · 6.39–13.61 km/h · mean 9.08
Every finisher ran the same 53 km course, so these paces are directly comparable.
Histogram of finisher pace. 94 finishers ranged from 6.39 to 13.61 kilometres per hour, with a mean of 9.08 and a median of 9.02. The busiest band is 8.0 to 8.5 kilometres per hour, with 18 finishers.
Results
Ranks 1–50 of 94
| Rank | Runner | Time | Pace | Cat. | Placing |
|---|---|---|---|---|---|
| 1 | STO LAT Polskiej Policji | 3:53:40h | 13.61 | M40 | 1st M · 1st M40 |
| 2 | Wprunning | 4:03:59h | 13.03 | M23 | 2nd M · 1st M23 |
| 3 | *Stawiguda | 4:13:50h | 12.53 | M35 | 3rd M · 1st M35 |
| 4 | *Straszyn | 4:31:24h | 11.72 | M40 | 4th M · 2nd M40 |
| 5 | *Frombork | 4:33:12h | 11.64 | M40 | 5th M · 3rd M40 |
| 6 | *Olsztyn | 4:38:59h | 11.40 | M23 | 6th M · 2nd M23 |
| 7 | Labosport Team | 4:43:20h | 11.22 | M40 | 7th M · 4th M40 |
| 8 | Lufthansa Systems Pola... | 4:44:52h | 11.16 | M35 | 8th M · 2nd M35 |
| 9 | Dziady Częstochowskie | 4:46:14h | 11.11 | M40 | 9th M · 5th M40 |
| 10 | Klub Biegacza Jurund S... | 4:54:38h | 10.79 | M45 | 10th M · 1st M45 |
| 11 | RPD | 4:56:24h | 10.73 | W23 | 1st F · 1st W23 |
| 12 | Zabiegany Wołomin | 4:57:57h | 10.67 | M40 | 11th M · 6th M40 |
| 13 | *Elbląg | 4:59:00h | 10.63 | W40 | 2nd F · 1st W40 |
| 14 | SUT Straszyn Ultra Team | 5:00:51h | 10.57 | M40 | 12th M · 7th M40 |
| 15 | *Opole | 5:02:24h | 10.52 | W23 | 3rd F · 2nd W23 |
| 16 | *Olsztyn | 5:02:24h | 10.52 | M35 | 13th M · 3rd M35 |
| 17 | *Olsztyn | 5:05:04h | 10.42 | M40 | 14th M · 8th M40 |
| 18 | Wprunning | 5:05:07h | 10.42 | M60 | 15th M · 1st M60 |
| 19 | AKM Olsztyn / Sklepbie... | 5:07:50h | 10.33 | W35 | 4th F · 1st W35 |
| 20 | 3Bro | 5:08:00h | 10.32 | M35 | 16th M · 4th M35 |
| 21 | #Niemaniemogę | 5:11:25h | 10.21 | M23 | 17th M · 3rd M23 |
| 22 | SUT Straszyn Ultra Team | 5:11:39h | 10.20 | M35 | 18th M · 5th M35 |
| 23 | Drużyna Wilka | 5:15:22h | 10.08 | W40 | 5th F · 2nd W40 |
| 24 | Świnka Raćka Team | 5:15:43h | 10.07 | M35 | 19th M · 6th M35 |
| 25 | SUT Straszyn Ultra Team | 5:17:11h | 10.03 | W40 | 6th F · 3rd W40 |
| 26 | *Pruszcz Gdański | 5:23:04h | 9.84 | M45 | 20th M · 2nd M45 |
| 27 | Drużyna Wilka | 5:23:53h | 9.82 | M40 | 21st M · 9th M40 |
| 28 | *Wojciechy | 5:24:22h | 9.80 | M45 | 22nd M · 3rd M45 |
| 29 | *Olsztyn | 5:27:30h | 9.71 | M35 | 23rd M · 7th M35 |
| 30 | *Gdańsk | 5:28:33h | 9.68 | W40 | 7th F · 4th W40 |
| 31 | *Kętrzyn | 5:28:40h | 9.68 | M40 | 24th M · 10th M40 |
| 32 | Leśny Cross | 5:29:05h | 9.66 | M40 | 25th M · 11th M40 |
| 33 | AKM Olsztyn / Drużyna ... | 5:29:06h | 9.66 | M45 | 26th M · 4th M45 |
| 34 | *Olsztyn | 5:30:22h | 9.63 | M35 | 27th M · 8th M35 |
| 35 | PZU Sport Team | 5:31:42h | 9.59 | M45 | 28th M · 5th M45 |
| 36 | *Nidzica | 5:34:06h | 9.52 | M40 | 29th M · 12th M40 |
| 37 | Mont Blanc Team | 5:36:17h | 9.46 | M40 | 30th M · 13th M40 |
| 38 | Team Kaszubska Poniewi... | 5:36:58h | 9.44 | M35 | 31st M · 9th M35 |
| 39 | SĄ Wolniejsi | 5:37:28h | 9.42 | M35 | 32nd M · 10th M35 |
| 40 | 3Bro | 5:42:28h | 9.29 | M35 | 33rd M · 11th M35 |
| 41 | *Pruszcz Gdański | 5:44:27h | 9.23 | M40 | 34th M · 14th M40 |
| 42 | *Radunica | 5:47:16h | 9.16 | M40 | 35th M · 15th M40 |
| 43 | M.I.L.A | 5:48:08h | 9.13 | W35 | 8th F · 2nd W35 |
| 44 | *Warszawa | 5:48:21h | 9.13 | M50 | 36th M · 1st M50 |
| 45 | *Gdańsk | 5:49:24h | 9.10 | M35 | 37th M · 12th M35 |
| 46 | Ostrów Biega / Spartan... | 5:50:02h | 9.09 | M23 | 38th M · 4th M23 |
| 47 | Drużyna Wilka | 5:52:30h | 9.02 | M45 | 39th M · 6th M45 |
| 48 | Dogoń Grodzisk Mazowiecki | 5:52:33h | 9.02 | M23 | 40th M · 5th M23 |
| 49 | *Olsztyn | 5:55:03h | 8.96 | M40 | 41st M · 16th M40 |
| 50 | SĄ Wolniejsi | 6:01:04h | 8.81 | M35 | 42nd M · 13th M35 |
- 1STO LAT Polskiej Policji1st M · 1st M40Time3:53:40hPace13.61Cat.M40
- 2Wprunning2nd M · 1st M23Time4:03:59hPace13.03Cat.M23
- 3*Stawiguda3rd M · 1st M35Time4:13:50hPace12.53Cat.M35
- 4*Straszyn4th M · 2nd M40Time4:31:24hPace11.72Cat.M40
- 5*Frombork5th M · 3rd M40Time4:33:12hPace11.64Cat.M40
- 6*Olsztyn6th M · 2nd M23Time4:38:59hPace11.40Cat.M23
- 7Labosport Team7th M · 4th M40Time4:43:20hPace11.22Cat.M40
- 8Lufthansa Systems Pola...8th M · 2nd M35Time4:44:52hPace11.16Cat.M35
- 9Dziady Częstochowskie9th M · 5th M40Time4:46:14hPace11.11Cat.M40
- 10Klub Biegacza Jurund S...10th M · 1st M45Time4:54:38hPace10.79Cat.M45
- 11RPD1st F · 1st W23Time4:56:24hPace10.73Cat.W23
- 12Zabiegany Wołomin11th M · 6th M40Time4:57:57hPace10.67Cat.M40
- 13*Elbląg2nd F · 1st W40Time4:59:00hPace10.63Cat.W40
- 14SUT Straszyn Ultra Team12th M · 7th M40Time5:00:51hPace10.57Cat.M40
- 15*Opole3rd F · 2nd W23Time5:02:24hPace10.52Cat.W23
- 16*Olsztyn13th M · 3rd M35Time5:02:24hPace10.52Cat.M35
- 17*Olsztyn14th M · 8th M40Time5:05:04hPace10.42Cat.M40
- 18Wprunning15th M · 1st M60Time5:05:07hPace10.42Cat.M60
- 19AKM Olsztyn / Sklepbie...4th F · 1st W35Time5:07:50hPace10.33Cat.W35
- 203Bro16th M · 4th M35Time5:08:00hPace10.32Cat.M35
- 21#Niemaniemogę17th M · 3rd M23Time5:11:25hPace10.21Cat.M23
- 22SUT Straszyn Ultra Team18th M · 5th M35Time5:11:39hPace10.20Cat.M35
- 23Drużyna Wilka5th F · 2nd W40Time5:15:22hPace10.08Cat.W40
- 24Świnka Raćka Team19th M · 6th M35Time5:15:43hPace10.07Cat.M35
- 25SUT Straszyn Ultra Team6th F · 3rd W40Time5:17:11hPace10.03Cat.W40
- 26*Pruszcz Gdański20th M · 2nd M45Time5:23:04hPace9.84Cat.M45
- 27Drużyna Wilka21st M · 9th M40Time5:23:53hPace9.82Cat.M40
- 28*Wojciechy22nd M · 3rd M45Time5:24:22hPace9.80Cat.M45
- 29*Olsztyn23rd M · 7th M35Time5:27:30hPace9.71Cat.M35
- 30*Gdańsk7th F · 4th W40Time5:28:33hPace9.68Cat.W40
- 31*Kętrzyn24th M · 10th M40Time5:28:40hPace9.68Cat.M40
- 32Leśny Cross25th M · 11th M40Time5:29:05hPace9.66Cat.M40
- 33AKM Olsztyn / Drużyna ...26th M · 4th M45Time5:29:06hPace9.66Cat.M45
- 34*Olsztyn27th M · 8th M35Time5:30:22hPace9.63Cat.M35
- 35PZU Sport Team28th M · 5th M45Time5:31:42hPace9.59Cat.M45
- 36*Nidzica29th M · 12th M40Time5:34:06hPace9.52Cat.M40
- 37Mont Blanc Team30th M · 13th M40Time5:36:17hPace9.46Cat.M40
- 38Team Kaszubska Poniewi...31st M · 9th M35Time5:36:58hPace9.44Cat.M35
- 39SĄ Wolniejsi32nd M · 10th M35Time5:37:28hPace9.42Cat.M35
- 403Bro33rd M · 11th M35Time5:42:28hPace9.29Cat.M35
- 41*Pruszcz Gdański34th M · 14th M40Time5:44:27hPace9.23Cat.M40
- 42*Radunica35th M · 15th M40Time5:47:16hPace9.16Cat.M40
- 43M.I.L.A8th F · 2nd W35Time5:48:08hPace9.13Cat.W35
- 44*Warszawa36th M · 1st M50Time5:48:21hPace9.13Cat.M50
- 45*Gdańsk37th M · 12th M35Time5:49:24hPace9.10Cat.M35
- 46Ostrów Biega / Spartan...38th M · 4th M23Time5:50:02hPace9.09Cat.M23
- 47Drużyna Wilka39th M · 6th M45Time5:52:30hPace9.02Cat.M45
- 48Dogoń Grodzisk Mazowiecki40th M · 5th M23Time5:52:33hPace9.02Cat.M23
- 49*Olsztyn41st M · 16th M40Time5:55:03hPace8.96Cat.M40
- 50SĄ Wolniejsi42nd M · 13th M35Time6:01:04hPace8.81Cat.M35
Showing ranks 1–50 of 94